createdAt,value
2023-04-22T00:00:14.212Z,70.18
2023-04-22T00:03:09.341Z,70.62
2023-04-22T00:05:38.501Z,70.33
2023-04-22T00:08:06.985Z,70.41
2023-04-22T00:10:34.994Z,70.20
2023-04-22T00:13:03.298Z,70.02
2023-04-22T00:15:34.621Z,69.90
2023-04-22T00:18:03.356Z,69.93
2023-04-22T00:20:33.115Z,70.00
2023-04-22T00:23:00.987Z,70.18
2023-04-22T00:25:28.839Z,70.21
2023-04-22T00:27:57.308Z,69.96
2023-04-22T00:30:25.304Z,69.80
2023-04-22T00:32:53.914Z,69.62
2023-04-22T00:35:22.386Z,69.74
2023-04-22T00:37:50.260Z,70.14
2023-04-22T00:40:18.295Z,70.90
2023-04-22T00:42:49.559Z,71.28
2023-04-22T00:45:19.968Z,71.48
2023-04-22T00:47:49.241Z,71.48
2023-04-22T00:50:17.367Z,71.50
2023-04-22T00:52:45.259Z,71.63
2023-04-22T00:55:13.782Z,71.94
2023-04-22T00:57:42.599Z,72.10
2023-04-22T01:00:11.871Z,72.16
2023-04-22T01:02:40.662Z,72.25
2023-04-22T01:05:11.614Z,72.07
2023-04-22T01:07:39.635Z,71.86
2023-04-22T01:10:08.606Z,72.33
2023-04-22T01:12:36.386Z,72.39
2023-04-22T01:15:07.576Z,72.40
2023-04-22T01:17:36.372Z,72.68
2023-04-22T01:20:05.588Z,72.90
2023-04-22T01:22:41.075Z,72.83
2023-04-22T01:25:11.593Z,72.69
2023-04-22T01:27:41.092Z,72.59
2023-04-22T01:30:12.655Z,72.90
2023-04-22T01:32:41.428Z,73.25
2023-04-22T01:35:10.474Z,73.18
2023-04-22T01:37:39.329Z,73.12
2023-04-22T01:40:11.040Z,73.22
2023-04-22T01:42:39.390Z,73.13
2023-04-22T01:45:07.800Z,73.04
2023-04-22T01:47:35.735Z,72.89
2023-04-22T01:50:04.663Z,72.90
2023-04-22T01:52:32.933Z,72.77
2023-04-22T01:55:02.780Z,72.46
2023-04-22T01:57:30.697Z,72.41
2023-04-22T01:59:58.675Z,72.82
2023-04-22T02:02:27.526Z,73.03
2023-04-22T02:04:55.661Z,73.21
2023-04-22T02:07:23.962Z,73.45
2023-04-22T02:09:52.351Z,73.39
2023-04-22T02:12:20.187Z,73.17
2023-04-22T02:14:51.396Z,73.17
2023-04-22T02:17:19.710Z,73.07
2023-04-22T02:19:47.783Z,73.10
2023-04-22T02:22:17.134Z,73.40
2023-04-22T02:24:45.891Z,73.36
2023-04-22T02:27:13.756Z,73.31
2023-04-22T02:29:42.127Z,73.14
2023-04-22T02:32:10.759Z,73.07
2023-04-22T02:34:38.690Z,72.94
2023-04-22T02:37:06.500Z,72.82
2023-04-22T02:39:35.359Z,72.81
2023-04-22T02:42:03.307Z,72.68
2023-04-22T02:44:31.312Z,72.87
2023-04-22T02:46:59.724Z,72.86
2023-04-22T02:49:27.901Z,72.97
2023-04-22T02:51:57.416Z,73.15
2023-04-22T02:54:25.833Z,73.27
2023-04-22T02:56:53.657Z,73.27
2023-04-22T02:59:22.339Z,73.39
2023-04-22T03:01:50.927Z,73.76
2023-04-22T03:04:22.129Z,74.10
2023-04-22T03:06:50.216Z,74.40
2023-04-22T03:09:18.359Z,74.63
2023-04-22T03:11:46.312Z,74.67
2023-04-22T03:14:14.622Z,74.51
2023-04-22T03:16:42.463Z,74.24
2023-04-22T03:19:10.488Z,74.34
2023-04-22T03:21:38.411Z,74.33
2023-04-22T03:24:06.482Z,74.38
2023-04-22T03:26:35.227Z,74.45
2023-04-22T03:29:03.362Z,74.42
2023-04-22T03:31:31.377Z,74.51
2023-04-22T03:33:59.590Z,74.34
2023-04-22T03:36:33.446Z,74.25
2023-04-22T03:39:01.746Z,74.19
2023-04-22T03:41:29.719Z,74.21
2023-04-22T03:44:00.342Z,73.97
2023-04-22T03:46:29.554Z,73.91
2023-04-22T03:48:57.362Z,73.81
2023-04-22T03:51:25.416Z,73.80
2023-04-22T03:53:53.300Z,73.82
2023-04-22T03:56:21.703Z,73.87
2023-04-22T03:58:52.393Z,73.88
2023-04-22T04:01:21.008Z,73.85
2023-04-22T04:03:49.274Z,73.96
2023-04-22T04:06:17.348Z,74.05
2023-04-22T04:08:46.291Z,74.12
2023-04-22T04:11:14.418Z,74.24
2023-04-22T04:13:42.288Z,74.21
2023-04-22T04:16:10.652Z,74.17
2023-04-22T04:18:38.898Z,74.22
2023-04-22T04:21:06.862Z,74.21
2023-04-22T04:23:34.655Z,74.27
2023-04-22T04:26:03.117Z,74.25
2023-04-22T04:28:32.989Z,74.15
2023-04-22T04:31:03.007Z,73.95
2023-04-22T04:33:32.710Z,73.80
2023-04-22T04:36:00.622Z,73.73
2023-04-22T04:38:29.067Z,73.87
2023-04-22T04:40:56.918Z,73.96
2023-04-22T04:43:26.282Z,73.80
2023-04-22T04:45:54.374Z,73.83
2023-04-22T04:48:25.288Z,73.93
2023-04-22T04:50:54.310Z,73.99
2023-04-22T04:53:22.737Z,73.74
2023-04-22T04:55:54.211Z,73.58
2023-04-22T04:58:22.944Z,73.44
2023-04-22T05:00:51.819Z,73.38
2023-04-22T05:03:19.889Z,73.21
2023-04-22T05:05:49.125Z,73.16
2023-04-22T05:08:17.683Z,73.10
2023-04-22T05:10:45.543Z,72.98
2023-04-22T05:13:13.743Z,72.69
2023-04-22T05:15:41.877Z,72.47
2023-04-22T05:18:10.178Z,72.25
2023-04-22T05:20:38.062Z,71.87
2023-04-22T05:23:06.107Z,71.70
2023-04-22T05:25:33.937Z,71.36
2023-04-22T05:28:02.355Z,71.27
2023-04-22T05:30:30.303Z,70.92
2023-04-22T05:32:58.199Z,70.53
2023-04-22T05:35:26.239Z,70.25
2023-04-22T05:37:54.193Z,69.82
2023-04-22T05:40:27.857Z,69.47
2023-04-22T05:42:58.214Z,69.42
2023-04-22T05:45:26.096Z,69.26
2023-04-22T05:47:54.490Z,69.09
2023-04-22T05:50:23.412Z,68.99
2023-04-22T05:52:51.327Z,69.00
2023-04-22T05:55:19.344Z,68.90
2023-04-22T05:57:47.590Z,68.88
2023-04-22T06:00:19.016Z,68.90
2023-04-22T06:02:46.996Z,68.96
2023-04-22T06:05:15.144Z,68.99
2023-04-22T06:07:46.714Z,68.87
2023-04-22T06:10:14.562Z,68.78
2023-04-22T06:12:42.427Z,68.48
2023-04-22T06:15:11.769Z,68.12
2023-04-22T06:17:39.645Z,67.89
2023-04-22T06:20:08.365Z,67.73
2023-04-22T06:22:36.532Z,67.57
2023-04-22T06:25:04.744Z,67.35
2023-04-22T06:27:35.792Z,67.46
2023-04-22T06:30:05.045Z,67.56
2023-04-22T06:32:33.159Z,67.43
2023-04-22T06:35:01.058Z,67.39
2023-04-22T06:37:28.951Z,67.22
2023-04-22T06:39:56.915Z,66.94
2023-04-22T06:42:25.321Z,66.45
2023-04-22T06:44:53.191Z,66.26
2023-04-22T06:47:21.185Z,66.16
2023-04-22T06:49:50.418Z,66.05
2023-04-22T06:52:18.837Z,65.84
2023-04-22T06:54:46.792Z,65.64
2023-04-22T06:57:16.067Z,65.44
2023-04-22T06:59:46.719Z,65.17
2023-04-22T07:02:15.118Z,65.03
2023-04-22T07:04:43.189Z,64.58
2023-04-22T07:07:11.626Z,64.22
2023-04-22T07:09:40.033Z,63.88
2023-04-22T07:12:08.937Z,63.76
2023-04-22T07:14:37.456Z,63.38
2023-04-22T07:17:05.354Z,63.11
2023-04-22T07:19:34.795Z,63.25
2023-04-22T07:22:04.174Z,63.40
2023-04-22T07:24:32.635Z,63.46
2023-04-22T07:27:02.679Z,63.33
2023-04-22T07:29:30.566Z,63.33
2023-04-22T07:31:58.406Z,63.07
2023-04-22T07:34:26.843Z,63.00
2023-04-22T07:36:54.933Z,63.01
2023-04-22T07:39:23.134Z,62.86
2023-04-22T07:41:51.688Z,62.75
2023-04-22T07:44:21.837Z,62.67
2023-04-22T07:46:50.804Z,62.41
2023-04-22T07:49:20.018Z,61.96
2023-04-22T07:51:48.385Z,61.69
2023-04-22T07:54:16.728Z,61.62
2023-04-22T07:56:44.637Z,61.19
2023-04-22T07:59:12.448Z,61.29
2023-04-22T08:01:40.455Z,60.91
2023-04-22T08:04:08.616Z,60.89
2023-04-22T08:06:37.234Z,61.03
2023-04-22T08:09:05.797Z,61.17
2023-04-22T08:11:33.735Z,61.25
2023-04-22T08:14:01.654Z,61.30
2023-04-22T08:16:29.668Z,60.76
2023-04-22T08:18:57.999Z,60.56
2023-04-22T08:21:27.576Z,60.24
2023-04-22T08:23:56.252Z,59.85
2023-04-22T08:26:24.233Z,59.83
2023-04-22T08:28:52.410Z,59.66
2023-04-22T08:31:20.369Z,59.59
2023-04-22T08:33:48.729Z,59.28
2023-04-22T08:36:17.061Z,58.90
2023-04-22T08:38:47.836Z,58.71
2023-04-22T08:41:19.322Z,59.03
2023-04-22T08:43:48.485Z,58.79
2023-04-22T08:46:17.970Z,58.74
2023-04-22T08:48:49.153Z,58.35
2023-04-22T08:51:18.554Z,57.79
2023-04-22T08:53:47.440Z,57.31
2023-04-22T08:56:15.854Z,56.80
2023-04-22T08:58:43.988Z,55.65
2023-04-22T09:01:13.440Z,56.04
2023-04-22T09:03:42.492Z,55.99
2023-04-22T09:06:12.252Z,55.68
2023-04-22T09:08:40.278Z,55.80
2023-04-22T09:11:08.454Z,55.57
2023-04-22T09:13:36.378Z,55.67
2023-04-22T09:16:04.880Z,55.38
2023-04-22T09:18:41.253Z,55.17
2023-04-22T09:21:09.256Z,55.10
2023-04-22T09:23:52.993Z,55.35
2023-04-22T09:26:25.349Z,55.13
2023-04-22T09:29:01.162Z,54.76
2023-04-22T09:31:29.452Z,53.95
2023-04-22T09:33:59.169Z,52.98
2023-04-22T09:36:29.062Z,53.14
2023-04-22T09:38:59.674Z,53.06
2023-04-22T09:41:39.312Z,51.20
2023-04-22T09:44:16.382Z,52.34
2023-04-22T09:46:45.016Z,50.64
2023-04-22T09:49:16.892Z,49.69
2023-04-22T09:51:45.223Z,47.60
2023-04-22T09:54:15.488Z,46.64
2023-04-22T09:56:53.886Z,46.88
2023-04-22T09:59:28.852Z,47.15
2023-04-22T10:02:00.177Z,47.18
2023-04-22T10:04:28.864Z,47.39
2023-04-22T10:06:57.550Z,47.35
2023-04-22T17:56:49.961Z,51.90
2023-04-22T17:59:17.932Z,53.01
2023-04-22T18:01:46.062Z,53.62
2023-04-22T18:04:14.161Z,53.91
2023-04-22T18:06:42.316Z,54.63
2023-04-22T18:09:10.777Z,55.13
2023-04-22T18:11:39.521Z,55.38
2023-04-22T18:14:08.666Z,56.11
2023-04-22T18:16:36.523Z,56.49
2023-04-22T18:19:06.947Z,56.78
2023-04-22T18:21:34.887Z,57.23
2023-04-22T18:24:03.239Z,57.26
2023-04-22T18:26:31.699Z,57.87
2023-04-22T18:28:59.581Z,58.51
2023-04-22T18:31:27.524Z,58.29
2023-04-22T18:33:55.507Z,58.49
2023-04-22T18:36:23.514Z,59.16
2023-04-22T18:38:52.207Z,59.20
2023-04-22T18:41:20.689Z,59.17
2023-04-22T18:43:48.724Z,59.42
2023-04-22T18:46:16.701Z,59.46
2023-04-22T18:48:44.639Z,59.71
2023-04-22T18:51:13.619Z,60.60
2023-04-22T18:53:42.049Z,60.47
2023-04-22T18:56:10.429Z,60.09
2023-04-22T18:58:41.889Z,60.26
2023-04-22T19:01:12.016Z,60.37
2023-04-22T19:03:40.360Z,60.93
2023-04-22T19:06:08.736Z,61.76
2023-04-22T19:08:37.145Z,61.14
2023-04-22T19:11:05.752Z,60.95
2023-04-22T19:13:33.636Z,61.29
2023-04-22T19:16:01.660Z,61.18
2023-04-22T19:18:29.857Z,61.35
2023-04-22T19:20:58.176Z,61.57
2023-04-22T19:23:26.922Z,61.91
2023-04-22T19:25:54.715Z,61.93
2023-04-22T19:28:22.565Z,61.75
2023-04-22T19:30:51.981Z,61.48
2023-04-22T19:33:20.529Z,61.76
2023-04-22T19:35:49.129Z,61.72
2023-04-22T19:38:21.539Z,61.34
2023-04-22T19:40:50.980Z,61.47
2023-04-22T19:43:19.431Z,61.41
2023-04-22T19:45:47.730Z,61.58
2023-04-22T19:48:16.046Z,61.73
2023-04-22T19:50:50.734Z,61.74
2023-04-22T19:53:20.664Z,61.58
2023-04-22T19:55:48.744Z,61.40
2023-04-22T19:58:17.303Z,61.14
2023-04-22T20:00:46.230Z,60.96
2023-04-22T20:03:16.305Z,60.89
2023-04-22T20:05:46.745Z,60.96
2023-04-22T20:08:15.914Z,61.06
2023-04-22T20:10:45.172Z,61.06
2023-04-22T20:13:13.794Z,60.77
2023-04-22T20:15:45.834Z,60.63
2023-04-22T20:18:17.097Z,60.71
2023-04-22T20:20:49.217Z,60.52
2023-04-22T20:23:21.266Z,60.58
2023-04-22T20:25:50.959Z,60.64
2023-04-22T20:28:19.430Z,60.50
2023-04-22T20:30:47.877Z,60.67
2023-04-22T20:33:18.048Z,60.74
2023-04-22T20:35:49.368Z,60.80
2023-04-22T20:38:19.563Z,60.98
2023-04-22T20:40:47.840Z,61.10
2023-04-22T20:43:16.571Z,60.96
2023-04-22T20:45:44.396Z,60.98
2023-04-22T20:48:12.347Z,60.95
2023-04-22T20:50:40.853Z,61.21
2023-04-22T20:53:08.673Z,61.60
2023-04-22T20:55:37.303Z,62.21
2023-04-22T20:58:06.154Z,62.38
2023-04-22T21:00:34.340Z,62.62
2023-04-22T21:03:09.003Z,62.78
2023-04-22T21:05:46.916Z,62.76
2023-04-22T21:08:23.796Z,62.98
2023-04-22T21:10:56.966Z,63.56
2023-04-22T21:13:25.246Z,63.92
2023-04-22T21:16:02.081Z,64.61
2023-04-22T21:18:32.990Z,64.77
2023-04-22T21:21:04.057Z,64.89
2023-04-22T21:23:32.208Z,65.00
2023-04-22T21:26:01.766Z,65.09
2023-04-22T21:28:30.935Z,65.31
2023-04-22T21:30:59.824Z,65.34
2023-04-22T21:33:27.713Z,65.71
2023-04-22T21:35:55.653Z,66.00
2023-04-22T21:38:23.432Z,66.41
2023-04-22T21:40:51.265Z,66.22
2023-04-22T21:43:19.723Z,66.25
2023-04-22T21:45:48.249Z,66.11
2023-04-22T21:48:16.194Z,65.92
2023-04-22T21:50:44.158Z,66.35
2023-04-22T21:53:12.120Z,66.65
2023-04-22T21:55:40.928Z,66.27
2023-04-22T21:58:09.435Z,66.12
2023-04-22T22:00:37.966Z,66.09
2023-04-22T22:03:06.531Z,66.20
2023-04-22T22:05:34.522Z,66.20
2023-04-22T22:08:02.512Z,66.18
2023-04-22T22:10:30.515Z,66.26
2023-04-22T22:12:58.318Z,66.22
2023-04-22T22:15:26.178Z,66.64
2023-04-22T22:17:54.187Z,66.79
2023-04-22T22:20:22.087Z,66.74
2023-04-22T22:22:49.868Z,66.96
2023-04-22T22:25:17.884Z,66.82
2023-04-22T22:27:49.012Z,66.50
2023-04-22T22:30:18.839Z,66.62
2023-04-22T22:32:47.110Z,66.76
2023-04-22T22:35:15.278Z,66.73
2023-04-22T22:37:46.239Z,66.87
2023-04-22T22:40:14.570Z,66.89
2023-04-22T22:42:42.890Z,66.85
2023-04-22T22:45:11.800Z,66.96
2023-04-22T22:47:42.680Z,67.22
2023-04-22T22:50:11.666Z,67.28
2023-04-22T22:52:39.576Z,67.14
2023-04-22T22:55:09.163Z,67.26
2023-04-22T22:57:37.117Z,67.09
2023-04-22T23:00:06.521Z,67.05
2023-04-22T23:02:34.629Z,67.04
2023-04-22T23:05:02.800Z,67.69
2023-04-22T23:07:30.701Z,67.56
2023-04-22T23:09:58.528Z,67.64
2023-04-22T23:12:26.449Z,67.78
2023-04-22T23:14:54.256Z,67.84
2023-04-22T23:17:22.716Z,67.79
2023-04-22T23:19:52.320Z,68.35
2023-04-22T23:22:20.566Z,68.26
2023-04-22T23:24:48.656Z,68.37
2023-04-22T23:27:17.602Z,68.82
2023-04-22T23:29:45.962Z,68.83
2023-04-22T23:32:15.659Z,69.03
2023-04-22T23:34:45.785Z,69.15
2023-04-22T23:37:16.448Z,69.67
2023-04-22T23:39:44.450Z,70.74
2023-04-22T23:42:12.361Z,70.04
2023-04-22T23:44:40.507Z,70.14
2023-04-22T23:47:08.787Z,69.90
2023-04-22T23:49:37.110Z,70.26
2023-04-22T23:52:04.992Z,70.44
2023-04-22T23:54:33.278Z,70.47
2023-04-22T23:57:01.483Z,70.53
2023-04-22T23:59:29.670Z,70.64
